La Mata - P.N. Sant Llorenç del Munt i l'Obac





Hora UTC 02:45
Temperatura 20.7 ºC
Humitat 40.5 %
Pressió 1010.7 hPa
Pluja 0.0 mm
Velocitat vent 11.8 km/h
Direcció vent WSW
Radiació solar 0.1 W/m²
Fuel 1.9 %

Dades diàries 2022-05-23



Hora UTC (hivern +1h; estiu +2h)
Temperatura (ºC) Humitat (%) Pressió (hPa) Velocitat vent (km/h) Precipitació (mm) Fuel (%) Radiació solar (W/m²)
Hora UTC Aire Humitat Pressió Vel. Dir. Vel. Max Dir. Intent. màx 5 min. Fuel Rad. Sol.
00:05 21.6 34.5 1012.3 15.7 SSW 15.7 SSW 0.0 -1.0 0.1
00:10 21.9 35.5 1012.2 17.2 SSW 26.5 SSW 0.0 -0.7 0.1
00:15 22.0 36.6 1012.2 18.8 SSW 26.5 SSW 0.0 -0.6 0.1
00:20 21.9 37.5 1012.1 17.1 SSW 25.1 SSE 0.0 -0.5 0.1
00:25 21.8 38.6 1011.9 14.6 SSW 25.1 SSW 0.0 -0.5 0.1
00:30 21.7 38.5 1011.8 12.1 SSW 20.5 SW 0.0 -0.3 0.1
00:35 22.1 37.4 1011.7 14.1 SSW 24.0 SW 0.0 -0.1 0.1
00:40 22.4 37.6 1011.6 13.8 SSW 23.3 SW 0.0 0.0 0.1
00:45 22.1 38.6 1011.7 17.6 SSW 28.9 S 0.0 0.1 0.1
00:50 21.8 39.0 1011.9 20.0 SSW 28.9 SW 0.0 0.2 0.2
00:55 21.3 39.3 1011.9 13.3 SSW 21.9 SSW 0.0 0.1 0.1
01:00 20.9 39.1 1011.9 15.0 SSW 22.6 SW 0.0 0.1 0.1
01:05 20.7 38.4 1011.8 13.0 SSW 25.4 SW 0.0 0.1 0.1
01:10 20.5 38.0 1011.9 10.9 SSW 18.4 WSW 0.0 0.1 0.1
01:15 20.7 38.7 1011.8 14.5 WSW 24.3 WSW 0.0 0.3 0.1
01:20 20.8 39.4 1011.8 14.5 WSW 21.2 WSW 0.0 0.4 0.1
01:25 20.8 39.5 1011.8 14.7 WSW 23.3 SW 0.0 0.5 0.1
01:30 20.9 39.7 1011.7 14.6 WSW 27.2 WSW 0.0 0.6 0.1
01:35 21.0 39.9 1011.6 13.5 WSW 23.6 WSW 0.0 0.7 0.1
01:40 21.0 39.7 1011.6 15.6 WSW 23.3 SW 0.0 0.9 0.1
01:45 20.9 39.6 1011.6 13.3 WSW 21.2 W 0.0 0.9 0.1
01:50 20.9 40.0 1011.5 12.7 WSW 19.4 WSW 0.0 1.0 0.1
01:55 20.9 39.9 1011.4 13.4 WSW 20.1 SW 0.0 1.1 0.1
02:00 20.9 40.4 1011.3 11.0 WSW 21.5 WSW 0.0 1.2 0.1
02:05 20.9 40.7 1011.2 8.9 SW 17.3 WSW 0.0 1.3 0.1
02:10 20.8 41.2 1011.0 8.9 SSW 16.2 SSW 0.0 1.3 0.1
02:15 20.7 41.8 1010.9 7.9 SSW 12.4 S 0.0 1.4 0.1
02:20 20.6 42.2 1010.8 8.4 SW 13.4 SW 0.0 1.5 0.1
02:25 20.9 41.5 1010.8 11.8 SSW 20.8 SSW 0.0 1.7 0.1
02:30 20.9 41.3 1010.8 12.4 SW 20.1 SW 0.0 1.8 0.1
02:35 20.7 41.3 1010.8 9.7 SW 16.2 WNW 0.0 1.8 0.1
02:40 20.7 40.8 1010.7 9.7 WSW 17.6 SW 0.0 1.8 0.1
02:45 20.7 40.5 1010.7 11.8 WSW 17.3 WSW 0.0 1.9 0.1
Màxima 22.4 42.2 1012.3 20.0 SSW 28.9 SW 0.0 1.9 0.2
Mínima 20 34.5 1010.7 -1.0
Total 0.0